createdAt,value
2018-11-02T00:01:31.974Z,98234.39
2018-11-02T00:04:01.485Z,98224.08
2018-11-02T00:06:30.986Z,98227.55
2018-11-02T00:09:00.489Z,98229.36
2018-11-02T00:11:29.887Z,98233.67
2018-11-02T00:13:59.395Z,98239.81
2018-11-02T00:16:28.754Z,98251.61
2018-11-02T00:18:58.198Z,98259.59
2018-11-02T00:21:27.599Z,98263.78
2018-11-02T00:23:57.315Z,98267.39
2018-11-02T00:26:26.922Z,98260.05
2018-11-02T00:28:56.526Z,98253.95
2018-11-02T00:31:25.927Z,98256.66
2018-11-02T00:33:55.331Z,98255.20
2018-11-02T00:36:24.833Z,98256.49
2018-11-02T00:38:54.378Z,98265.69
2018-11-02T00:41:23.843Z,98256.13
2018-11-02T00:43:53.350Z,98263.47
2018-11-02T00:46:22.847Z,98268.09
2018-11-02T00:48:52.352Z,98265.50
2018-11-02T00:51:21.748Z,98265.46
2018-11-02T00:53:51.154Z,98269.17
2018-11-02T00:56:20.556Z,98275.02
2018-11-02T00:58:50.089Z,98287.34
2018-11-02T01:01:19.464Z,98293.14
2018-11-02T01:03:49.054Z,98283.59
2018-11-02T01:06:18.473Z,98284.61
2018-11-02T01:08:47.980Z,98286.16
2018-11-02T01:11:17.478Z,98290.22
2018-11-02T01:13:47.084Z,98285.33
2018-11-02T01:16:16.488Z,98290.67
2018-11-02T01:18:45.892Z,98308.47
2018-11-02T01:21:15.215Z,98310.87
2018-11-02T01:23:44.590Z,98319.00
2018-11-02T01:26:14.094Z,98316.33
2018-11-02T01:28:43.619Z,98318.95
2018-11-02T01:31:13.000Z,98322.72
2018-11-02T01:33:42.400Z,98338.55
2018-11-02T01:36:11.803Z,98344.56
2018-11-02T01:38:41.306Z,98339.81
2018-11-02T01:41:10.811Z,98331.50
2018-11-02T01:43:40.295Z,98322.66
2018-11-02T01:46:09.719Z,98331.13
2018-11-02T01:48:39.323Z,98334.63
2018-11-02T01:51:08.746Z,98339.16
2018-11-02T01:53:38.316Z,98335.65
2018-11-02T01:56:07.837Z,98342.42
2018-11-02T01:58:37.545Z,98353.61
2018-11-02T02:01:07.050Z,98355.03
2018-11-02T02:03:36.455Z,98352.72
2018-11-02T02:06:06.363Z,98352.72
2018-11-02T02:08:35.935Z,98350.67
2018-11-02T02:11:05.800Z,98343.66
2018-11-02T02:13:35.287Z,98341.76
2018-11-02T02:16:04.692Z,98345.13
2018-11-02T02:18:34.090Z,98341.51
2018-11-02T02:21:03.588Z,98341.23
2018-11-02T02:23:33.107Z,98336.10
2018-11-02T02:26:02.495Z,98342.89
2018-11-02T02:28:31.899Z,98336.80
2018-11-02T02:31:01.300Z,98336.52
2018-11-02T02:33:30.710Z,98343.50
2018-11-02T02:36:00.039Z,98338.42
2018-11-02T02:38:29.511Z,98335.87
2018-11-02T02:40:59.118Z,98338.75
2018-11-02T02:43:28.619Z,98340.94
2018-11-02T02:45:58.123Z,98350.52
2018-11-02T02:48:27.627Z,98348.94
2018-11-02T02:50:57.028Z,98345.19
2018-11-02T02:53:26.530Z,98349.89
2018-11-02T02:55:56.038Z,98361.95
2018-11-02T02:58:25.439Z,98369.86
2018-11-02T03:00:54.942Z,98369.52
2018-11-02T03:03:24.344Z,98373.41
2018-11-02T03:05:53.747Z,98377.45
2018-11-02T03:08:23.251Z,98383.77
2018-11-02T03:10:52.744Z,98385.31
2018-11-02T03:13:21.976Z,98385.89
2018-11-02T03:15:51.661Z,98388.88
2018-11-02T03:18:21.103Z,98395.27
2018-11-02T03:20:50.569Z,98380.89
2018-11-02T03:23:20.275Z,98385.41
2018-11-02T03:25:49.771Z,98388.45
2018-11-02T03:28:19.183Z,98378.16
2018-11-02T03:30:48.789Z,98376.63
2018-11-02T03:33:18.399Z,98379.02
2018-11-02T03:35:47.903Z,98385.44
2018-11-02T03:38:17.222Z,98377.06
2018-11-02T03:40:47.008Z,98369.70
2018-11-02T03:43:16.516Z,98377.28
2018-11-02T03:45:46.125Z,98368.63
2018-11-02T03:48:15.724Z,98367.22
2018-11-02T03:50:45.436Z,98356.38
2018-11-02T03:53:14.939Z,98363.55
2018-11-02T03:55:44.342Z,98378.75
2018-11-02T03:58:13.869Z,98382.48
2018-11-02T04:00:43.349Z,98390.08
2018-11-02T04:03:12.852Z,98397.48
2018-11-02T04:05:42.259Z,98397.97
2018-11-02T04:08:11.759Z,98401.66
2018-11-02T04:10:41.263Z,98406.62
2018-11-02T04:13:10.660Z,98414.81
2018-11-02T04:15:40.066Z,98406.50
2018-11-02T04:18:09.576Z,98397.58
2018-11-02T04:20:38.868Z,98400.55
2018-11-02T04:23:08.372Z,98418.87
2018-11-02T04:25:37.877Z,98416.25
2018-11-02T04:28:07.292Z,98426.86
2018-11-02T04:30:36.694Z,98422.22
2018-11-02T04:33:06.506Z,98436.80
2018-11-02T04:35:35.999Z,98440.32
2018-11-02T04:38:05.498Z,98455.83
2018-11-02T04:40:35.004Z,98465.95
2018-11-02T04:43:04.511Z,98463.98
2018-11-02T04:45:39.127Z,98455.88
2018-11-02T04:48:10.511Z,98466.59
2018-11-02T04:50:40.453Z,98470.28
2018-11-02T04:53:09.866Z,98471.34
2018-11-02T04:55:39.283Z,98480.07
2018-11-02T04:58:08.845Z,98479.98
2018-11-02T05:00:38.309Z,98482.86
2018-11-02T05:03:07.814Z,98484.58
2018-11-02T05:05:37.316Z,98494.09
2018-11-02T05:08:06.716Z,98499.54
2018-11-02T05:10:37.284Z,98501.28
2018-11-02T05:13:06.649Z,98506.67
2018-11-02T05:15:36.153Z,98506.59
2018-11-02T05:18:05.656Z,98517.64
2018-11-02T05:20:35.013Z,98528.59
2018-11-02T05:23:04.459Z,98541.06
2018-11-02T05:25:33.862Z,98559.00
2018-11-02T05:28:03.264Z,98556.69
2018-11-02T05:30:32.773Z,98559.48
2018-11-02T05:33:02.172Z,98563.62
2018-11-02T05:35:32.360Z,98570.02
2018-11-02T05:38:09.314Z,98574.30
2018-11-02T05:40:39.900Z,98567.67
2018-11-02T05:43:09.405Z,98579.89
2018-11-02T05:45:38.907Z,98581.82
2018-11-02T05:48:08.307Z,98589.05
2018-11-02T05:50:37.815Z,98594.27
2018-11-02T05:53:07.141Z,98594.61
2018-11-02T05:55:36.615Z,98596.88
2018-11-02T05:58:06.117Z,98587.61
2018-11-02T06:00:35.524Z,98595.27
2018-11-02T06:03:05.174Z,98594.03
2018-11-02T06:05:35.004Z,98596.80
2018-11-02T06:08:04.526Z,98595.68
2018-11-02T06:10:33.844Z,98595.75
2018-11-02T06:13:03.263Z,98584.14
2018-11-02T06:15:32.957Z,98590.58
2018-11-02T06:18:02.463Z,98594.81
2018-11-02T06:20:31.888Z,98604.44
2018-11-02T06:23:01.453Z,98618.55
2018-11-02T06:25:30.957Z,98623.61
2018-11-02T06:28:00.371Z,98636.67
2018-11-02T06:30:29.732Z,98643.59
2018-11-02T06:32:59.243Z,98649.97
2018-11-02T06:35:28.676Z,98663.23
2018-11-02T06:37:58.082Z,98665.22
2018-11-02T06:40:27.495Z,98674.09
2018-11-02T06:42:56.918Z,98680.67
2018-11-02T06:45:26.470Z,98684.77
2018-11-02T06:47:55.791Z,98681.50
2018-11-02T06:50:25.125Z,98686.23
2018-11-02T06:52:54.595Z,98682.33
2018-11-02T06:55:24.240Z,98688.51
2018-11-02T06:57:53.808Z,98693.85
2018-11-02T07:00:23.169Z,98699.91
2018-11-02T07:02:52.533Z,98701.53
2018-11-02T07:05:21.916Z,98710.89
2018-11-02T07:07:51.371Z,98710.73
2018-11-02T07:10:20.715Z,98719.25
2018-11-02T07:12:50.119Z,98717.31
2018-11-02T07:15:19.519Z,98721.06
2018-11-02T07:17:48.996Z,98731.25
2018-11-02T07:20:18.426Z,98730.42
2018-11-02T07:22:47.725Z,98735.56
2018-11-02T07:25:17.296Z,98744.09
2018-11-02T07:27:46.708Z,98750.66
2018-11-02T07:30:16.137Z,98759.87
2018-11-02T07:32:45.536Z,98753.59
2018-11-02T07:35:15.084Z,98760.95
2018-11-02T07:37:44.904Z,98756.56
2018-11-02T07:40:14.355Z,98765.52
2018-11-02T07:42:43.760Z,98769.53
2018-11-02T07:45:13.136Z,98777.21
2018-11-02T07:47:42.713Z,98786.86
2018-11-02T07:50:12.833Z,98785.11
2018-11-02T07:52:42.613Z,98798.48
2018-11-02T07:55:13.522Z,98798.57
2018-11-02T07:57:43.034Z,98802.04
2018-11-02T08:00:13.786Z,98802.23
2018-11-02T08:02:44.971Z,98812.92
2018-11-02T08:05:15.132Z,98807.45
2018-11-02T08:07:44.634Z,98809.73
2018-11-02T08:10:14.139Z,98809.52
2018-11-02T08:12:43.540Z,98813.45
2018-11-02T08:15:14.126Z,98823.53
2018-11-02T08:17:43.651Z,98819.30
2018-11-02T08:20:13.793Z,98829.88
2018-11-02T08:22:43.911Z,98833.47
2018-11-02T08:25:13.804Z,98838.66
2018-11-02T08:27:43.329Z,98830.97
2018-11-02T08:30:13.140Z,98840.55
2018-11-02T08:32:42.850Z,98837.54
2018-11-02T08:35:13.323Z,98842.22
2018-11-02T08:37:43.090Z,98845.50
2018-11-02T08:40:13.624Z,98855.63
2018-11-02T08:42:43.514Z,98864.11
2018-11-02T08:45:12.930Z,98861.49
2018-11-02T08:47:42.433Z,98865.92
2018-11-02T08:50:12.449Z,98857.53
2018-11-02T08:52:42.652Z,98863.36
2018-11-02T08:55:12.072Z,98866.16
2018-11-02T08:57:41.713Z,98865.19
2018-11-02T09:00:12.773Z,98864.47
2018-11-02T09:02:42.530Z,98868.25
2018-11-02T09:05:12.198Z,98870.50
2018-11-02T09:07:41.540Z,98876.66
2018-11-02T09:10:12.694Z,98877.09
2018-11-02T09:12:42.307Z,98874.96
2018-11-02T09:15:11.606Z,98878.33
2018-11-02T09:17:41.094Z,98887.90
2018-11-02T09:20:10.447Z,98897.79
2018-11-02T09:22:39.987Z,98906.48
2018-11-02T09:25:10.265Z,98901.70
2018-11-02T09:27:39.977Z,98892.98
2018-11-02T09:30:13.770Z,98888.83
2018-11-02T09:32:43.627Z,98896.48
2018-11-02T09:35:13.662Z,98894.61
2018-11-02T09:37:43.574Z,98905.21
2018-11-02T09:40:13.313Z,98900.20
2018-11-02T09:42:42.925Z,98905.16
2018-11-02T09:45:14.451Z,98905.27
2018-11-02T09:47:44.589Z,98905.81
2018-11-02T09:50:14.275Z,98905.42
2018-11-02T09:52:43.771Z,98894.70
2018-11-02T09:55:15.398Z,98893.22
2018-11-02T09:57:46.273Z,98895.31
2018-11-02T10:00:16.692Z,98889.97
2018-11-02T10:02:46.143Z,98896.52
2018-11-02T10:05:17.250Z,98900.45
2018-11-02T10:07:46.847Z,98906.87
2018-11-02T10:10:16.246Z,98915.88
2018-11-02T10:12:45.766Z,98917.08
2018-11-02T10:15:15.998Z,98917.97
2018-11-02T10:17:46.107Z,98911.52
2018-11-02T10:20:15.797Z,98915.94
2018-11-02T10:22:45.611Z,98918.82
2018-11-02T10:25:15.126Z,98916.42
2018-11-02T10:27:45.024Z,98919.20
2018-11-02T10:30:15.306Z,98919.31
2018-11-02T10:32:47.039Z,98924.06
2018-11-02T10:35:16.524Z,98927.59
2018-11-02T10:37:47.069Z,98926.27
2018-11-02T10:40:18.077Z,98917.67
2018-11-02T10:42:53.826Z,98923.64
2018-11-02T10:45:24.210Z,98921.52
2018-11-02T10:47:53.655Z,98925.89
2018-11-02T10:50:23.185Z,98923.06
2018-11-02T10:52:52.662Z,98914.34
2018-11-02T10:55:22.063Z,98919.36
2018-11-02T10:57:51.467Z,98915.79
2018-11-02T11:00:26.339Z,98916.70
2018-11-02T11:02:55.799Z,98914.91
2018-11-02T11:05:25.249Z,98920.25
2018-11-02T11:07:54.604Z,98919.84
2018-11-02T11:10:23.896Z,98923.88
2018-11-02T11:12:53.545Z,98934.41
2018-11-02T11:15:22.912Z,98932.42
2018-11-02T11:17:52.415Z,98928.46
2018-11-02T11:20:21.919Z,98932.56
2018-11-02T11:22:51.321Z,98932.09
2018-11-02T11:25:21.852Z,98938.61
2018-11-02T11:27:51.352Z,98938.34
2018-11-02T11:30:21.368Z,98945.87
2018-11-02T11:32:52.104Z,98942.09
2018-11-02T11:35:21.499Z,98958.63
2018-11-02T11:37:51.314Z,98961.60
2018-11-02T11:40:21.642Z,98957.56
2018-11-02T11:42:51.142Z,98955.38
2018-11-02T11:45:20.955Z,98951.25
2018-11-02T11:47:50.461Z,98949.59
2018-11-02T11:50:23.153Z,98941.97
2018-11-02T11:52:53.990Z,98938.34
2018-11-02T11:55:24.559Z,98936.44
2018-11-02T11:57:54.110Z,98939.73
2018-11-02T12:00:24.328Z,98940.38
2018-11-02T12:02:54.344Z,98947.72
2018-11-02T12:05:24.647Z,98950.08
2018-11-02T12:07:54.172Z,98944.58
2018-11-02T12:10:24.941Z,98950.86
2018-11-02T12:13:07.106Z,98945.95
2018-11-02T12:15:37.647Z,98942.69
2018-11-02T12:18:08.467Z,98938.41
2018-11-02T12:20:37.796Z,98935.95
2018-11-02T12:23:07.380Z,98939.83
2018-11-02T12:25:36.778Z,98934.42
2018-11-02T12:28:06.607Z,98933.11
2018-11-02T12:30:36.149Z,98943.14
2018-11-02T12:33:06.012Z,98943.25
2018-11-02T12:35:35.511Z,98939.10
2018-11-02T12:38:05.019Z,98942.39
2018-11-02T12:40:34.472Z,98950.55
2018-11-02T12:43:03.827Z,98958.28
2018-11-02T12:45:33.228Z,98956.50
2018-11-02T12:48:02.774Z,98956.77
2018-11-02T12:50:32.347Z,98948.28
2018-11-02T12:53:01.734Z,98954.48
2018-11-02T12:55:31.236Z,98965.16
2018-11-02T12:58:00.740Z,98972.39
2018-11-02T13:00:30.551Z,98983.27
2018-11-02T13:03:00.059Z,98985.91
2018-11-02T13:05:29.357Z,98992.17
2018-11-02T13:07:58.758Z,98987.88
2018-11-02T13:10:28.282Z,98981.50
2018-11-02T13:12:57.763Z,98976.41
2018-11-02T13:15:27.167Z,98992.39
2018-11-02T13:17:56.572Z,98986.20
2018-11-02T13:20:26.077Z,98981.91
2018-11-02T13:22:55.579Z,98981.08
2018-11-02T13:25:25.137Z,98985.60
2018-11-02T13:27:54.690Z,98998.36
2018-11-02T13:30:24.324Z,99004.11
2018-11-02T13:32:53.905Z,99004.28
2018-11-02T13:35:23.408Z,99004.67
2018-11-02T13:37:52.834Z,99013.28
2018-11-02T13:40:22.417Z,99013.97
2018-11-02T13:42:51.955Z,99019.42
2018-11-02T13:45:21.635Z,99025.84
2018-11-02T13:47:51.030Z,99034.95
2018-11-02T13:50:20.653Z,99036.95
2018-11-02T13:52:50.041Z,99041.64
2018-11-02T13:55:19.442Z,99041.96
2018-11-02T13:57:48.944Z,99036.78
2018-11-02T14:00:19.128Z,99032.92
2018-11-02T14:02:48.568Z,99029.09
2018-11-02T14:05:18.586Z,99032.36
2018-11-02T14:07:48.091Z,99029.59
2018-11-02T14:10:17.898Z,99037.22
2018-11-02T14:12:47.307Z,99036.06
2018-11-02T14:15:17.425Z,99032.36
2018-11-02T14:17:46.925Z,99036.34
2018-11-02T14:20:16.635Z,99039.88
2018-11-02T14:22:46.138Z,99046.88
2018-11-02T14:25:16.906Z,99049.06
2018-11-02T14:27:46.710Z,99049.27
2018-11-02T14:30:17.521Z,99047.98
2018-11-02T14:32:48.150Z,99057.50
2018-11-02T14:35:18.009Z,99064.64
2018-11-02T14:37:47.466Z,99068.02
2018-11-02T14:40:16.968Z,99069.46
2018-11-02T14:42:47.647Z,99065.00
2018-11-02T14:45:17.068Z,99077.92
2018-11-02T14:47:47.127Z,99081.45
2018-11-02T14:50:16.640Z,99088.22
2018-11-02T14:52:46.295Z,99092.70
2018-11-02T14:55:15.629Z,99095.50
2018-11-02T14:57:45.029Z,99106.00
2018-11-02T15:00:14.434Z,99108.03
2018-11-02T15:02:43.835Z,99108.16
2018-11-02T15:05:14.147Z,99100.98
2018-11-02T15:07:44.034Z,99100.15
2018-11-02T15:10:13.474Z,99100.00
2018-11-02T15:12:42.981Z,99103.52
2018-11-02T15:15:12.487Z,99101.25
2018-11-02T15:17:42.056Z,99094.05
2018-11-02T15:20:13.691Z,99095.58
2018-11-02T15:22:43.662Z,99105.07
2018-11-02T15:25:13.079Z,99096.88
2018-11-02T15:27:42.466Z,99093.11
2018-11-02T15:30:13.803Z,99092.04
2018-11-02T15:32:44.723Z,99098.53
2018-11-02T15:35:14.150Z,99087.71
2018-11-02T15:37:43.938Z,99082.06
2018-11-02T15:40:14.184Z,99084.94
2018-11-02T15:42:43.770Z,99083.28
2018-11-02T15:45:14.633Z,99039.41
2018-11-02T15:47:45.087Z,99087.13
2018-11-02T15:50:14.450Z,99096.81
2018-11-02T15:52:43.951Z,99098.28
2018-11-02T15:55:13.358Z,99090.61
2018-11-02T15:57:42.862Z,99089.19
2018-11-02T16:00:16.609Z,99091.08
2018-11-02T16:02:47.195Z,99092.47
2018-11-02T16:05:16.697Z,99097.36
2018-11-02T16:07:46.100Z,99091.04
2018-11-02T16:10:15.504Z,99094.27
2018-11-02T16:12:45.316Z,99092.56
2018-11-02T16:15:14.717Z,99091.47
2018-11-02T16:17:44.059Z,99097.48
2018-11-02T16:20:14.765Z,99090.78
2018-11-02T16:22:44.765Z,99098.75
2018-11-02T16:25:15.293Z,99103.92
2018-11-02T16:27:44.737Z,99110.75
2018-11-02T16:30:14.377Z,99114.11
2018-11-02T16:32:43.806Z,99121.26
2018-11-02T16:35:13.555Z,99120.59
2018-11-02T16:37:42.916Z,99122.62
2018-11-02T16:40:14.805Z,99127.27
2018-11-02T16:42:44.860Z,99128.62
2018-11-02T16:45:14.964Z,99134.70
2018-11-02T16:47:44.710Z,99150.41
2018-11-02T16:50:15.321Z,99170.39
2018-11-02T16:52:45.012Z,99171.42
2018-11-02T16:55:14.566Z,99178.20
2018-11-02T16:57:44.105Z,99187.73
2018-11-02T17:00:16.446Z,99190.17
2018-11-02T17:02:46.867Z,99195.33
2018-11-02T17:05:16.493Z,99195.69
2018-11-02T17:07:46.081Z,99197.52
2018-11-02T17:10:16.350Z,99204.74
2018-11-02T17:12:46.113Z,99208.37
2018-11-02T17:15:15.725Z,99208.36
2018-11-02T17:17:45.122Z,99207.69
2018-11-02T17:20:15.778Z,99214.61
2018-11-02T17:22:45.553Z,99213.59
2018-11-02T17:25:15.145Z,99220.79
2018-11-02T17:27:44.572Z,99219.43
2018-11-02T17:30:15.214Z,99232.75
2018-11-02T17:32:44.599Z,99233.88
2018-11-02T17:35:14.016Z,99245.22
2018-11-02T17:37:43.512Z,99252.25
2018-11-02T17:40:14.140Z,99263.89
2018-11-02T17:42:44.109Z,99266.18
2018-11-02T17:45:13.478Z,99271.23
2018-11-02T17:47:43.492Z,99274.38
2018-11-02T17:50:14.433Z,99274.17
2018-11-02T17:52:44.018Z,99282.52
2018-11-02T17:55:13.434Z,99287.70
2018-11-02T17:57:42.820Z,99290.38
2018-11-02T18:00:13.308Z,99292.34
2018-11-02T18:02:42.859Z,99294.28
2018-11-02T18:05:12.688Z,99291.01
2018-11-02T18:07:42.273Z,99291.31
2018-11-02T18:10:13.268Z,99287.68
2018-11-02T18:12:42.714Z,99286.88
2018-11-02T18:15:12.885Z,99278.55
2018-11-02T18:17:42.952Z,99284.20
2018-11-02T18:20:14.371Z,99291.94
2018-11-02T18:22:43.906Z,99297.17
2018-11-02T18:25:13.686Z,99258.52
2018-11-02T18:27:43.734Z,99314.41
2018-11-02T18:32:59.659Z,99313.74
2018-11-02T18:35:29.283Z,99321.31
2018-11-02T18:37:58.645Z,99329.87
2018-11-02T18:40:28.081Z,99329.38
2018-11-02T18:42:57.558Z,99334.59
2018-11-02T18:45:27.156Z,99334.72
2018-11-02T18:47:56.675Z,99339.45
2018-11-02T18:50:26.269Z,99351.58
2018-11-02T18:52:55.770Z,99354.41
2018-11-02T18:55:25.290Z,99350.22
2018-11-02T18:57:55.194Z,99357.39
2018-11-02T19:00:24.668Z,99360.98
2018-11-02T19:02:54.216Z,99364.48
2018-11-02T19:05:23.848Z,99355.48
2018-11-02T19:07:53.513Z,99356.62
2018-11-02T19:10:23.221Z,99365.27
2018-11-02T19:12:53.060Z,99373.15
2018-11-02T19:15:23.459Z,99382.87
2018-11-02T19:17:54.000Z,99374.70
2018-11-02T19:20:24.738Z,99387.61
2018-11-02T19:22:54.578Z,99392.70
2018-11-02T19:25:24.512Z,99386.19
2018-11-02T19:27:54.622Z,99379.31
2018-11-02T19:30:24.688Z,99382.65
2018-11-02T19:32:54.736Z,99386.08
2018-11-02T19:35:25.266Z,99396.94
2018-11-02T19:37:55.223Z,99386.13
2018-11-02T19:40:25.021Z,99392.57
2018-11-02T19:42:55.160Z,99405.06
2018-11-02T19:45:26.112Z,99414.27
2018-11-02T19:48:00.229Z,99410.03
2018-11-02T19:50:30.435Z,99405.42
2018-11-02T19:53:00.388Z,99411.64
2018-11-02T19:55:31.071Z,99410.49
2018-11-02T19:58:01.294Z,99413.58
2018-11-02T20:00:31.074Z,99424.71
2018-11-02T20:03:01.167Z,99430.22
2018-11-02T20:05:31.123Z,99426.69
2018-11-02T20:08:01.266Z,99431.55
2018-11-02T20:10:31.068Z,99424.48
2018-11-02T20:13:01.020Z,99421.54
2018-11-02T20:15:31.022Z,99429.19
2018-11-02T20:18:01.371Z,99425.14
2018-11-02T20:20:31.335Z,99432.67
2018-11-02T20:23:01.342Z,99439.35
2018-11-02T20:25:31.198Z,99443.14
2018-11-02T20:28:01.760Z,99452.58
2018-11-02T20:30:31.715Z,99452.15
2018-11-02T20:33:01.779Z,99457.17
2018-11-02T20:35:31.752Z,99451.31
2018-11-02T20:38:01.855Z,99458.36
2018-11-02T20:40:32.243Z,99454.81
2018-11-02T20:43:02.350Z,99464.25
2018-11-02T20:45:32.395Z,99460.84
2018-11-02T20:48:02.495Z,99457.07
2018-11-02T20:50:32.515Z,99460.89
2018-11-02T20:53:02.487Z,99464.19
2018-11-02T20:55:32.588Z,99466.20
2018-11-02T20:58:02.793Z,99463.27
2018-11-02T21:00:32.849Z,99467.11
2018-11-02T21:03:02.860Z,99470.39
2018-11-02T21:05:32.577Z,99475.95
2018-11-02T21:08:02.220Z,99480.59
2018-11-02T21:10:31.986Z,99480.27
2018-11-02T21:13:01.724Z,99477.97
2018-11-02T21:15:31.654Z,99485.42
2018-11-02T21:18:01.817Z,99495.78
2018-11-02T21:20:32.620Z,99492.00
2018-11-02T21:23:02.428Z,99488.98
2018-11-02T21:25:31.993Z,99501.27
2018-11-02T21:28:01.895Z,99494.55
2018-11-02T21:30:31.504Z,99486.44
2018-11-02T21:33:01.226Z,99487.80
2018-11-02T21:35:30.714Z,99490.96
2018-11-02T21:38:00.141Z,99494.91
2018-11-02T21:40:29.620Z,99485.52
2018-11-02T21:42:59.235Z,99491.17
2018-11-02T21:45:28.733Z,99489.42
2018-11-02T21:47:58.149Z,99495.08
2018-11-02T21:50:27.742Z,99492.34
2018-11-02T21:52:58.499Z,99501.23
2018-11-02T21:55:28.524Z,99506.71
2018-11-02T21:57:57.994Z,99499.97
2018-11-02T22:00:27.407Z,99496.74
2018-11-02T22:02:56.791Z,99494.87
2018-11-02T22:05:27.223Z,99499.00
2018-11-02T22:07:56.727Z,99502.52
2018-11-02T22:10:26.231Z,99503.44
2018-11-02T22:12:55.785Z,99509.12
2018-11-02T22:15:25.340Z,99506.13
2018-11-02T22:17:54.843Z,99502.77
2018-11-02T22:20:24.251Z,99505.72
2018-11-02T22:22:53.696Z,99502.04
2018-11-02T22:25:23.153Z,99505.53
2018-11-02T22:27:52.862Z,99509.48
2018-11-02T22:30:22.366Z,99507.49
2018-11-02T22:32:52.848Z,99506.84
2018-11-02T22:35:22.295Z,99507.33
2018-11-02T22:37:51.698Z,99518.61
2018-11-02T22:40:21.200Z,99516.94
2018-11-02T22:42:50.636Z,99520.72
2018-11-02T22:45:20.006Z,99528.97
2018-11-02T22:47:54.733Z,99536.33
2018-11-02T22:50:24.237Z,99539.78
2018-11-02T22:52:53.638Z,99541.23
2018-11-02T22:55:23.149Z,99534.39
2018-11-02T22:57:52.855Z,99536.03
2018-11-02T23:00:22.253Z,99540.70
2018-11-02T23:02:51.764Z,99539.25
2018-11-02T23:05:21.163Z,99538.66
2018-11-02T23:07:50.766Z,99544.14
2018-11-02T23:10:20.269Z,99550.07
2018-11-02T23:12:49.776Z,99556.36
2018-11-02T23:15:19.485Z,99546.72
2018-11-02T23:17:49.088Z,99544.63
2018-11-02T23:20:18.595Z,99548.08
2018-11-02T23:22:48.200Z,99551.03
2018-11-02T23:25:17.703Z,99551.33
2018-11-02T23:27:47.477Z,99556.30
2018-11-02T23:30:17.111Z,99547.73
2018-11-02T23:32:46.523Z,99553.83
2018-11-02T23:35:16.130Z,99532.61
2018-11-02T23:37:45.635Z,99539.67
2018-11-02T23:40:15.139Z,99545.05
2018-11-02T23:42:44.642Z,99532.42
2018-11-02T23:45:14.147Z,99525.42
2018-11-02T23:47:48.976Z,99524.34
2018-11-02T23:50:18.376Z,99521.48
2018-11-02T23:52:47.778Z,99517.66
2018-11-02T23:55:17.179Z,99507.08
2018-11-02T23:57:46.685Z,99508.69
